Time;durP1;ratioP1;P1;durP2;ratioP2;P2;SDS_P1;SDS_P2;PMS_P1;PMS_P2;Temp;Humidity;BMP_temperature;BMP_pressure;BME280_temperature;BME280_humidity;BME280_pressure;Samples;Min_cycle;Max_cycle;Signal;HPM_P1;HPM_P2
2023/10/19 00:02:07;;;;;;;27.75;19.33;;;10.60;90.30;;;;;;4984171;28;19941;-64
2023/10/19 00:04:35;;;;;;;26.40;18.92;;;10.60;89.80;;;;;;4983578;28;20529;-64
2023/10/19 00:07:04;;;;;;;24.95;18.27;;;10.60;89.90;;;;;;4984504;28;20044;-65
2023/10/19 00:09:36;;;;;;;25.30;19.33;;;10.60;90.00;;;;;;4984783;28;20030;-64
2023/10/19 00:12:03;;;;;;;26.67;19.65;;;10.60;90.00;;;;;;4981767;28;20487;-64
2023/10/19 00:14:28;;;;;;;27.02;19.20;;;10.60;90.00;;;;;;4984325;28;20045;-64
2023/10/19 00:16:59;;;;;;;26.00;19.60;;;10.60;89.90;;;;;;4988674;28;20034;-64
2023/10/19 00:19:28;;;;;;;26.27;19.88;;;10.60;89.90;;;;;;4987598;28;20042;-64
2023/10/19 00:22:08;;;;;;;29.35;20.45;;;10.70;89.90;;;;;;4989427;28;20030;-64
2023/10/19 00:24:34;;;;;;;25.67;19.25;;;10.70;89.90;;;;;;4988171;28;20045;-64
2023/10/19 00:27:06;;;;;;;27.90;20.20;;;10.70;89.80;;;;;;4989126;28;20030;-64
2023/10/19 00:29:33;;;;;;;23.17;18.00;;;10.70;89.90;;;;;;4988995;28;20042;-64
2023/10/19 00:31:59;;;;;;;25.77;19.88;;;10.70;90.00;;;;;;4989292;28;20043;-64
2023/10/19 00:34:28;;;;;;;26.90;19.52;;;10.70;90.00;;;;;;4987705;28;20389;-64
2023/10/19 00:36:55;;;;;;;26.20;19.65;;;10.70;90.00;;;;;;4988638;28;20038;-63
2023/10/19 00:39:22;;;;;;;32.10;20.55;;;10.70;90.00;;;;;;4987994;28;20037;-64
2023/10/19 00:41:48;;;;;;;26.50;19.95;;;10.70;90.00;;;;;;4988699;28;20038;-63
2023/10/19 00:44:22;;;;;;;27.67;20.38;;;10.70;90.00;;;;;;4986687;28;20134;-64
2023/10/19 00:47:02;;;;;;;29.58;20.08;;;10.70;90.00;;;;;;4988190;28;20387;-63
2023/10/19 00:49:28;;;;;;;25.27;19.02;;;10.70;89.80;;;;;;4988038;28;20030;-64
2023/10/19 00:52:10;;;;;;;24.85;18.88;;;10.70;89.70;;;;;;4987773;28;20042;-63
2023/10/19 00:54:50;;;;;;;26.42;18.88;;;10.70;89.70;;;;;;4986907;28;20042;-64
2023/10/19 00:57:20;;;;;;;25.25;19.10;;;10.70;89.80;;;;;;4987329;28;20039;-64
2023/10/19 00:59:54;;;;;;;24.80;18.30;;;10.70;89.90;;;;;;4987711;28;20050;-64
2023/10/19 01:02:21;;;;;;;24.08;19.00;;;10.80;89.90;;;;;;4987279;28;20073;-64
2023/10/19 01:05:05;;;;;;;24.85;18.52;;;10.70;89.80;;;;;;4988458;28;20038;-63
2023/10/19 01:07:33;;;;;;;23.20;17.55;;;10.80;89.90;;;;;;4988197;28;20461;-64
2023/10/19 01:10:12;;;;;;;22.85;17.60;;;10.80;89.80;;;;;;4987831;28;20027;-64
2023/10/19 01:12:41;;;;;;;24.38;18.13;;;10.80;89.90;;;;;;4986379;28;20037;-64
2023/10/19 01:15:13;;;;;;;25.33;18.45;;;10.80;89.70;;;;;;4987320;28;20026;-63
2023/10/19 01:17:42;;;;;;;25.40;18.75;;;10.80;89.70;;;;;;4987949;28;20057;-64
2023/10/19 01:28:43;;;;;;;24.75;17.73;;;10.70;89.70;;;;;;4987054;28;20042;-64
2023/10/19 01:34:06;;;;;;;24.00;17.98;;;10.60;89.90;;;;;;4987353;28;20521;-64
2023/10/19 01:36:44;;;;;;;24.38;17.40;;;10.70;90.00;;;;;;4985984;28;20034;-64
2023/10/19 01:39:10;;;;;;;26.05;17.83;;;10.60;89.90;;;;;;4987125;28;20061;-64
2023/10/19 01:41:36;;;;;;;23.58;17.15;;;10.60;90.00;;;;;;4986821;28;20038;-63
2023/10/19 01:44:13;;;;;;;23.10;17.25;;;10.60;90.00;;;;;;4986599;28;20096;-64
2023/10/19 01:46:38;;;;;;;24.48;17.35;;;10.60;90.00;;;;;;4986270;28;20113;-64
2023/10/19 01:49:05;;;;;;;24.90;18.27;;;10.60;90.00;;;;;;4986814;28;20458;-64
2023/10/19 01:51:38;;;;;;;22.92;17.33;;;10.60;90.00;;;;;;4987198;28;20096;-64
2023/10/19 01:54:05;;;;;;;24.23;17.67;;;10.60;90.50;;;;;;4986809;28;20579;-64
2023/10/19 01:56:31;;;;;;;21.95;16.90;;;10.60;90.10;;;;;;4985828;28;20038;-62
2023/10/19 01:58:58;;;;;;;22.25;17.23;;;10.60;90.20;;;;;;4986561;28;20038;-64
2023/10/19 02:03:55;;;;;;;24.25;17.98;;;10.60;90.20;;;;;;4986932;28;20035;-64
2023/10/19 02:06:21;;;;;;;21.42;16.45;;;10.70;90.30;;;;;;4987023;28;20041;-63
2023/10/19 02:08:51;;;;;;;22.77;16.90;;;10.70;90.30;;;;;;4987123;28;20129;-63
2023/10/19 02:11:20;;;;;;;22.08;16.80;;;10.70;90.30;;;;;;4985177;28;20038;-64
2023/10/19 02:13:46;;;;;;;23.10;17.65;;;10.70;90.30;;;;;;4986048;28;20050;-64
2023/10/19 02:16:14;;;;;;;21.95;16.73;;;10.70;90.30;;;;;;4985581;28;20038;-64
2023/10/19 02:18:42;;;;;;;20.98;16.20;;;10.80;90.40;;;;;;4984981;28;20104;-64
2023/10/19 02:21:07;;;;;;;20.42;16.05;;;10.80;90.40;;;;;;4985628;28;20049;-63
2023/10/19 02:23:36;;;;;;;19.90;16.13;;;10.80;90.30;;;;;;4985944;28;20019;-64
2023/10/19 02:26:03;;;;;;;20.67;16.02;;;10.80;90.70;;;;;;4986277;28;20042;-63
2023/10/19 02:28:32;;;;;;;21.60;16.42;;;10.80;90.30;;;;;;4985879;28;20061;-64
2023/10/19 02:31:10;;;;;;;19.85;15.63;;;10.80;90.30;;;;;;4986853;28;20481;-64
2023/10/19 02:33:36;;;;;;;23.15;16.80;;;10.90;90.30;;;;;;4986806;28;20034;-64
2023/10/19 02:36:03;;;;;;;19.60;15.90;;;10.90;90.30;;;;;;4986648;28;20418;-64
2023/10/19 02:38:29;;;;;;;20.50;15.98;;;10.90;90.20;;;;;;4985442;28;20460;-63
2023/10/19 02:40:55;;;;;;;20.75;16.73;;;11.00;90.20;;;;;;4986319;28;20113;-64
2023/10/19 02:43:23;;;;;;;19.23;16.00;;;11.00;90.10;;;;;;4985724;28;20125;-64
2023/10/19 02:45:49;;;;;;;19.77;15.07;;;11.00;90.10;;;;;;4986377;28;20122;-64
2023/10/19 02:48:15;;;;;;;19.95;15.52;;;11.00;90.00;;;;;;4985936;28;20138;-64
2023/10/19 02:50:41;;;;;;;21.88;15.90;;;11.00;90.00;;;;;;4976487;28;20041;-64
2023/10/19 02:53:07;;;;;;;19.90;15.27;;;10.90;90.00;;;;;;4985975;28;20409;-64
2023/10/19 02:55:33;;;;;;;19.27;14.60;;;10.90;89.90;;;;;;4986285;28;20031;-64
2023/10/19 02:57:59;;;;;;;19.48;14.75;;;10.90;89.90;;;;;;4986177;28;20835;-63
2023/10/19 03:00:32;;;;;;;18.75;14.68;;;10.90;89.90;;;;;;4984961;28;20327;-64
2023/10/19 03:02:59;;;;;;;17.52;14.68;;;10.90;89.60;;;;;;4985524;28;20037;-64
2023/10/19 03:05:26;;;;;;;17.67;13.93;;;10.90;89.40;;;;;;4985898;28;20030;-65
2023/10/19 03:07:52;;;;;;;19.20;14.50;;;10.80;89.20;;;;;;4985644;28;20049;-64
2023/10/19 03:10:33;;;;;;;19.38;15.18;;;10.80;89.20;;;;;;4983897;28;20494;-63
2023/10/19 03:12:59;;;;;;;17.92;14.38;;;10.80;89.20;;;;;;4984721;28;20042;-64
2023/10/19 03:15:27;;;;;;;21.98;14.38;;;10.80;89.20;;;;;;4984787;28;20042;-64
2023/10/19 03:17:52;;;;;;;18.40;14.18;;;10.80;89.30;;;;;;4985446;28;20058;-64
2023/10/19 03:20:23;;;;;;;19.17;13.65;;;10.80;89.30;;;;;;4983311;28;20038;-64
2023/10/19 03:22:48;;;;;;;18.00;14.13;;;10.70;89.20;;;;;;4985499;28;20041;-64
2023/10/19 03:26:17;;;;;;;16.60;13.77;;;10.70;89.20;;;;;;4985783;28;20031;-64
2023/10/19 03:28:08;;;;;;;17.77;14.15;;;10.70;89.30;;;;;;4985495;28;20077;-64
2023/10/19 03:30:39;;;;;;;17.75;14.68;;;10.60;89.40;;;;;;4984499;28;20039;-66
2023/10/19 03:33:12;;;;;;;17.77;14.05;;;10.70;89.70;;;;;;4985823;28;20502;-64
2023/10/19 03:35:41;;;;;;;18.70;15.02;;;10.70;90.00;;;;;;4986568;28;20049;-64
2023/10/19 03:38:18;;;;;;;16.60;14.13;;;10.70;90.10;;;;;;4984410;28;20502;-63
2023/10/19 03:40:52;;;;;;;18.15;15.00;;;10.70;90.10;;;;;;4985542;28;20040;-64
2023/10/19 03:43:26;;;;;;;19.33;14.77;;;10.70;90.20;;;;;;4985525;28;20050;-64
2023/10/19 03:45:52;;;;;;;18.13;14.30;;;10.70;90.20;;;;;;4986456;28;20031;-64
2023/10/19 03:48:29;;;;;;;18.38;14.68;;;10.70;90.20;;;;;;4985422;28;20469;-64
2023/10/19 03:50:56;;;;;;;17.65;14.57;;;10.70;90.20;;;;;;4987800;28;20035;-64
2023/10/19 03:53:23;;;;;;;16.98;14.05;;;10.70;90.20;;;;;;4989251;28;20565;-64
2023/10/19 03:55:52;;;;;;;16.50;14.00;;;10.70;90.20;;;;;;4988733;28;20039;-64
2023/10/19 03:58:20;;;;;;;16.02;13.65;;;10.70;90.20;;;;;;4989155;28;20652;-63
2023/10/19 04:00:48;;;;;;;18.83;14.15;;;10.70;90.30;;;;;;4989322;28;20042;-64
2023/10/19 04:03:14;;;;;;;19.13;14.73;;;10.70;90.30;;;;;;4988652;28;20395;-64
2023/10/19 04:05:41;;;;;;;17.80;13.95;;;10.80;90.30;;;;;;4989039;28;20068;-64
2023/10/19 04:08:20;;;;;;;15.60;13.73;;;10.80;90.40;;;;;;4988593;28;20383;-64
2023/10/19 04:11:07;;;;;;;16.98;13.27;;;10.80;90.40;;;;;;4988850;28;20068;-64
2023/10/19 04:13:32;;;;;;;15.18;12.45;;;10.80;90.40;;;;;;4988711;28;20221;-64
2023/10/19 04:15:57;;;;;;;15.88;12.65;;;10.80;90.40;;;;;;4988800;28;20093;-64
2023/10/19 04:18:25;;;;;;;17.15;13.50;;;10.80;90.40;;;;;;4988510;28;20038;-64
2023/10/19 04:20:55;;;;;;;17.80;12.50;;;10.90;90.40;;;;;;4986881;28;20037;-64
2023/10/19 04:23:27;;;;;;;16.55;13.68;;;10.90;90.40;;;;;;4988261;28;20034;-64
2023/10/19 04:25:56;;;;;;;17.95;13.88;;;10.90;90.40;;;;;;4988409;28;20068;-64
2023/10/19 04:28:30;;;;;;;16.90;13.77;;;10.90;90.40;;;;;;4988509;28;20465;-64
2023/10/19 04:31:02;;;;;;;18.67;14.13;;;10.90;90.40;;;;;;4981298;28;20405;-62
2023/10/19 04:33:28;;;;;;;18.02;13.88;;;11.00;90.40;;;;;;4984489;28;20037;-64
2023/10/19 04:35:55;;;;;;;16.92;13.25;;;10.90;90.40;;;;;;4986626;28;20022;-63
2023/10/19 04:38:22;;;;;;;16.27;13.82;;;11.00;90.40;;;;;;4986345;28;20406;-63
2023/10/19 04:40:48;;;;;;;17.65;13.60;;;11.00;90.40;;;;;;4984836;28;20050;-64
2023/10/19 04:43:13;;;;;;;18.67;14.35;;;11.00;90.40;;;;;;4985441;28;20521;-64
2023/10/19 04:45:40;;;;;;;16.67;13.88;;;11.00;90.40;;;;;;4983950;28;20038;-63
2023/10/19 04:48:06;;;;;;;18.65;14.50;;;11.10;90.40;;;;;;4984513;28;20034;-64
2023/10/19 04:50:31;;;;;;;18.00;14.45;;;11.10;90.40;;;;;;4985658;28;20089;-64
2023/10/19 04:52:57;;;;;;;17.80;14.50;;;11.10;90.40;;;;;;4983290;28;20065;-64
2023/10/19 04:55:23;;;;;;;18.27;15.07;;;11.10;90.40;;;;;;4982675;28;20047;-63
2023/10/19 04:57:49;;;;;;;16.70;14.18;;;11.10;90.40;;;;;;4985554;28;20096;-64
2023/10/19 05:00:15;;;;;;;18.17;14.45;;;11.10;90.30;;;;;;4983785;28;20461;-64
2023/10/19 05:02:41;;;;;;;19.63;14.88;;;11.10;90.30;;;;;;4980569;28;20042;-64
2023/10/19 05:05:07;;;;;;;21.17;15.23;;;11.10;90.40;;;;;;4977272;28;20042;-64
2023/10/19 05:07:33;;;;;;;23.52;14.25;;;11.10;90.50;;;;;;4976177;28;20135;-64
2023/10/19 05:09:59;;;;;;;18.83;14.32;;;11.10;90.50;;;;;;4977618;28;20031;-64
2023/10/19 05:12:24;;;;;;;19.17;15.38;;;11.20;90.60;;;;;;4978077;28;20062;-64
2023/10/19 05:14:50;;;;;;;18.67;14.45;;;11.20;90.60;;;;;;4983271;28;20503;-64
2023/10/19 05:17:16;;;;;;;18.40;15.00;;;11.20;90.60;;;;;;4984894;28;20518;-63
2023/10/19 05:19:42;;;;;;;18.45;14.60;;;11.20;90.60;;;;;;4984360;28;20038;-62
2023/10/19 05:22:09;;;;;;;20.05;14.98;;;11.30;90.70;;;;;;4986660;28;20121;-63
2023/10/19 05:24:35;;;;;;;18.30;14.38;;;11.30;90.70;;;;;;4983213;28;20038;-64
2023/10/19 05:27:01;;;;;;;18.75;14.48;;;11.30;90.70;;;;;;4983193;28;20038;-64
2023/10/19 05:29:27;;;;;;;17.88;14.30;;;11.30;90.70;;;;;;4983590;28;20030;-64
2023/10/19 05:31:53;;;;;;;17.05;14.13;;;11.30;90.70;;;;;;4984974;28;20493;-64
2023/10/19 05:34:23;;;;;;;19.73;14.68;;;11.30;90.70;;;;;;4984364;28;20034;-63
2023/10/19 05:36:49;;;;;;;17.45;14.38;;;11.30;90.70;;;;;;4983529;28;20159;-63
2023/10/19 05:39:15;;;;;;;16.40;13.05;;;11.40;90.70;;;;;;4983385;28;20133;-63
2023/10/19 05:41:41;;;;;;;20.65;14.82;;;11.40;90.70;;;;;;4981703;28;20120;-63
2023/10/19 05:44:07;;;;;;;18.65;14.55;;;11.40;90.70;;;;;;4983221;28;20046;-63
2023/10/19 05:46:32;;;;;;;19.90;14.45;;;11.40;90.80;;;;;;4983189;28;20514;-64
2023/10/19 05:48:58;;;;;;;18.10;14.40;;;11.40;90.80;;;;;;4984255;28;20042;-63
2023/10/19 05:51:24;;;;;;;16.42;14.02;;;11.50;90.80;;;;;;4985215;28;20057;-64
2023/10/19 05:53:50;;;;;;;17.55;13.98;;;11.50;90.80;;;;;;4985548;28;20038;-64
2023/10/19 05:56:17;;;;;;;17.92;14.63;;;11.50;90.80;;;;;;4983812;28;20129;-64
2023/10/19 05:58:43;;;;;;;17.33;14.27;;;11.50;90.80;;;;;;4982789;28;20031;-64
2023/10/19 06:01:09;;;;;;;17.50;13.60;;;11.50;90.80;;;;;;4980786;28;20039;-63
2023/10/19 06:03:34;;;;;;;17.92;14.55;;;11.60;90.80;;;;;;4984022;28;20092;-64
2023/10/19 06:06:00;;;;;;;18.05;14.02;;;11.60;90.80;;;;;;4983753;28;20049;-63
2023/10/19 06:08:27;;;;;;;17.20;14.43;;;11.60;90.80;;;;;;4983641;28;20041;-64
2023/10/19 06:10:53;;;;;;;18.67;14.52;;;11.70;90.80;;;;;;4981890;28;20120;-63
2023/10/19 06:13:19;;;;;;;17.45;14.25;;;11.60;90.80;;;;;;4981504;28;21031;-63
2023/10/19 06:15:44;;;;;;;17.00;13.98;;;11.70;90.80;;;;;;4984462;28;20433;-64
2023/10/19 06:18:10;;;;;;;20.15;15.68;;;11.70;90.80;;;;;;4984775;28;20501;-64
2023/10/19 06:20:36;;;;;;;19.30;15.60;;;11.70;90.80;;;;;;4981727;28;20493;-64
2023/10/19 06:23:05;;;;;;;18.27;14.57;;;11.70;90.80;;;;;;4984392;28;20587;-64
2023/10/19 06:25:32;;;;;;;19.40;15.15;;;11.70;90.80;;;;;;4983746;28;20468;-63
2023/10/19 06:27:59;;;;;;;18.95;14.38;;;11.70;90.80;;;;;;4984278;28;20166;-64
2023/10/19 06:30:25;;;;;;;18.40;14.65;;;11.80;90.80;;;;;;4981465;28;20117;-64
2023/10/19 06:33:02;;;;;;;18.08;15.02;;;11.70;90.80;;;;;;4982235;28;20049;-64
2023/10/19 06:35:31;;;;;;;16.60;14.02;;;11.70;90.80;;;;;;4981720;28;20344;-64
2023/10/19 06:37:58;;;;;;;19.50;14.85;;;11.70;90.80;;;;;;4984707;28;20046;-64
2023/10/19 06:40:26;;;;;;;18.60;14.20;;;11.80;90.90;;;;;;4983486;28;20039;-64
2023/10/19 06:42:55;;;;;;;19.95;15.10;;;11.80;90.90;;;;;;4984395;28;20046;-64
2023/10/19 06:45:21;;;;;;;19.38;14.88;;;11.80;90.90;;;;;;4983551;28;20043;-63
2023/10/19 06:47:52;;;;;;;20.92;15.95;;;11.80;91.00;;;;;;4982798;28;20042;-63
2023/10/19 06:50:20;;;;;;;18.98;15.20;;;11.80;91.00;;;;;;4981969;28;20038;-62
2023/10/19 06:52:47;;;;;;;21.30;15.60;;;11.90;91.00;;;;;;4982915;28;20069;-63
2023/10/19 06:55:13;;;;;;;22.55;15.40;;;11.80;91.00;;;;;;4983464;28;20062;-63
2023/10/19 06:57:43;;;;;;;20.20;15.18;;;11.80;91.00;;;;;;4983210;28;20487;-63
2023/10/19 07:00:21;;;;;;;18.45;14.18;;;11.80;91.00;;;;;;4982433;28;20088;-63
2023/10/19 07:02:52;;;;;;;20.90;15.68;;;11.80;91.00;;;;;;4983122;28;20141;-63
2023/10/19 07:05:21;;;;;;;20.48;14.48;;;11.80;91.10;;;;;;4982274;28;20034;-63
2023/10/19 07:07:48;;;;;;;20.17;15.27;;;11.80;91.20;;;;;;4982536;28;20042;-64
2023/10/19 07:10:14;;;;;;;22.75;15.50;;;11.80;91.20;;;;;;4983316;28;20113;-63
2023/10/19 07:12:44;;;;;;;21.55;15.20;;;11.90;91.30;;;;;;4980305;28;20168;-62
2023/10/19 07:15:13;;;;;;;20.98;15.52;;;11.90;91.40;;;;;;4982879;28;20038;-62
2023/10/19 07:17:43;;;;;;;22.58;16.05;;;11.90;91.40;;;;;;4981557;28;20410;-61
2023/10/19 07:20:25;;;;;;;20.55;16.05;;;11.90;91.50;;;;;;4979001;28;20065;-63
2023/10/19 07:23:09;;;;;;;23.38;16.58;;;12.00;91.50;;;;;;4983929;28;20045;-62
2023/10/19 07:25:45;;;;;;;22.58;15.85;;;12.00;91.50;;;;;;4982933;28;20041;-63
2023/10/19 07:28:14;;;;;;;23.20;15.60;;;12.10;91.50;;;;;;4983353;28;20608;-64
2023/10/19 07:30:41;;;;;;;20.10;15.35;;;12.20;91.60;;;;;;4982442;28;20034;-63
2023/10/19 07:33:09;;;;;;;20.83;15.43;;;12.20;91.50;;;;;;4981402;28;20042;-63
2023/10/19 07:35:37;;;;;;;19.90;14.90;;;12.20;91.50;;;;;;4983573;28;20038;-63
2023/10/19 07:38:04;;;;;;;20.15;15.05;;;12.30;91.50;;;;;;4983873;28;20100;-64
2023/10/19 07:40:30;;;;;;;20.95;14.68;;;12.30;91.50;;;;;;4982095;28;20034;-63
2023/10/19 07:42:55;;;;;;;19.98;14.80;;;12.40;91.50;;;;;;4982771;28;20568;-64
2023/10/19 07:45:22;;;;;;;21.98;15.60;;;12.40;91.50;;;;;;4982286;28;20031;-64
2023/10/19 07:47:47;;;;;;;21.35;14.45;;;12.50;91.50;;;;;;4983125;28;20038;-64
2023/10/19 07:50:16;;;;;;;18.25;13.95;;;12.50;91.50;;;;;;4981716;28;20081;-64
2023/10/19 07:52:48;;;;;;;19.15;14.18;;;12.60;91.40;;;;;;4981734;28;20038;-64
2023/10/19 07:55:15;;;;;;;21.83;15.10;;;12.60;91.40;;;;;;4981323;28;20045;-64
2023/10/19 07:57:41;;;;;;;24.00;14.20;;;12.70;91.30;;;;;;4982141;28;20069;-64
2023/10/19 08:00:08;;;;;;;19.38;13.93;;;12.70;91.30;;;;;;4982004;28;20278;-64
2023/10/19 08:02:41;;;;;;;18.55;14.13;;;12.70;91.30;;;;;;4980716;28;20556;-63
2023/10/19 08:05:08;;;;;;;17.60;14.40;;;12.80;91.30;;;;;;4983651;28;20733;-64
2023/10/19 08:07:37;;;;;;;19.30;14.40;;;12.80;91.70;;;;;;4983610;28;20049;-64
2023/10/19 08:10:05;;;;;;;17.88;13.73;;;12.80;91.30;;;;;;4983080;28;20537;-64
2023/10/19 08:12:32;;;;;;;17.27;14.68;;;12.90;91.30;;;;;;4981700;28;20035;-65
2023/10/19 08:14:59;;;;;;;19.33;15.30;;;12.90;91.30;;;;;;4983351;28;20164;-63
2023/10/19 08:17:25;;;;;;;20.73;16.13;;;12.90;91.40;;;;;;4983630;28;20517;-64
2023/10/19 08:19:50;;;;;;;18.92;15.10;;;12.90;91.30;;;;;;4983948;28;20039;-64
2023/10/19 08:22:16;;;;;;;18.63;15.10;;;13.00;91.40;;;;;;4981757;28;20033;-65
2023/10/19 08:24:45;;;;;;;20.77;15.40;;;13.00;91.40;;;;;;4984083;28;20034;-64
2023/10/19 08:27:12;;;;;;;19.60;15.98;;;13.10;91.30;;;;;;4983913;28;20449;-64
2023/10/19 08:29:38;;;;;;;19.38;15.55;;;13.10;91.30;;;;;;4983293;28;20049;-64
2023/10/19 08:32:04;;;;;;;20.13;15.60;;;13.10;91.30;;;;;;4984868;28;20046;-64
2023/10/19 08:34:35;;;;;;;17.80;14.93;;;13.20;91.30;;;;;;4983442;28;20565;-63
2023/10/19 08:37:00;;;;;;;18.15;14.60;;;13.20;91.30;;;;;;4985218;28;20093;-64
2023/10/19 08:39:27;;;;;;;17.88;14.63;;;13.30;91.30;;;;;;4986879;28;20038;-64
2023/10/19 08:41:53;;;;;;;16.50;14.18;;;13.30;91.30;;;;;;4986531;28;20038;-64
2023/10/19 08:44:20;;;;;;;18.52;14.77;;;13.30;91.30;;;;;;4986031;28;20563;-64
2023/10/19 08:46:47;;;;;;;18.85;14.38;;;13.40;91.40;;;;;;4985149;28;20042;-64
2023/10/19 08:49:14;;;;;;;19.77;14.70;;;13.40;91.30;;;;;;4986791;28;20453;-63
2023/10/19 08:51:46;;;;;;;20.17;15.52;;;13.50;91.30;;;;;;4984429;28;20673;-63
2023/10/19 08:54:13;;;;;;;19.38;14.98;;;13.50;91.20;;;;;;4986618;28;20113;-63
2023/10/19 08:56:41;;;;;;;21.10;15.23;;;13.60;91.20;;;;;;4987533;28;20034;-63
2023/10/19 08:59:15;;;;;;;21.02;15.00;;;13.60;91.20;;;;;;4984663;28;20042;-64
2023/10/19 09:01:43;;;;;;;28.23;16.67;;;13.60;91.20;;;;;;4985989;28;20050;-64
2023/10/19 09:04:10;;;;;;;22.58;15.63;;;13.60;91.20;;;;;;4985448;28;20030;-64
2023/10/19 09:06:42;;;;;;;19.55;14.73;;;13.60;91.20;;;;;;4984838;28;20066;-64
2023/10/19 09:09:19;;;;;;;19.88;14.43;;;13.70;91.30;;;;;;4986258;28;20046;-63
2023/10/19 09:11:46;;;;;;;19.80;15.13;;;13.70;91.40;;;;;;4984099;28;20054;-63
2023/10/19 09:14:12;;;;;;;17.88;14.35;;;13.70;91.30;;;;;;4984904;28;20121;-64
2023/10/19 09:16:55;;;;;;;20.52;15.05;;;13.70;91.40;;;;;;4985533;28;20042;-63
2023/10/19 09:19:34;;;;;;;18.75;15.23;;;13.70;91.80;;;;;;4986350;28;20042;-61
2023/10/19 09:22:00;;;;;;;18.85;14.50;;;13.70;91.40;;;;;;4986288;28;20537;-63
2023/10/19 09:24:26;;;;;;;19.92;15.35;;;13.80;91.50;;;;;;4984770;28;20038;-63
2023/10/19 09:26:51;;;;;;;21.67;15.07;;;13.80;91.50;;;;;;4987099;28;20034;-62
2023/10/19 09:29:18;;;;;;;22.05;14.98;;;13.80;91.50;;;;;;4981103;28;20042;-63
2023/10/19 09:31:45;;;;;;;23.20;14.52;;;13.90;91.60;;;;;;4985485;28;20767;-63
2023/10/19 09:34:11;;;;;;;28.15;15.60;;;13.90;91.50;;;;;;4985006;28;20042;-64
2023/10/19 09:36:37;;;;;;;26.02;16.48;;;14.00;91.50;;;;;;4985112;28;20045;-63
2023/10/19 09:39:03;;;;;;;33.15;22.35;;;14.00;91.50;;;;;;4986330;28;20529;-61
2023/10/19 09:41:30;;;;;;;35.83;23.25;;;14.10;91.50;;;;;;4985256;28;20042;-64
2023/10/19 09:44:06;;;;;;;25.75;15.90;;;14.10;91.60;;;;;;4985169;28;20038;-64
2023/10/19 09:46:36;;;;;;;22.63;14.95;;;14.10;91.70;;;;;;4985323;28;20049;-62
2023/10/19 09:49:02;;;;;;;21.85;16.48;;;14.10;91.90;;;;;;4985875;28;20038;-62
2023/10/19 09:51:29;;;;;;;19.05;14.40;;;14.20;91.60;;;;;;4985448;28;20091;-62
2023/10/19 09:54:01;;;;;;;21.80;15.52;;;14.20;91.60;;;;;;4985816;28;20034;-62
2023/10/19 09:56:33;;;;;;;23.08;15.00;;;14.20;91.50;;;;;;4984694;28;20034;-64
2023/10/19 09:59:05;;;;;;;22.70;14.88;;;14.30;91.60;;;;;;4983619;28;20038;-60
2023/10/19 10:02:04;;;;;;;24.60;15.52;;;14.30;91.60;;;;;;4983539;28;20034;-63
2023/10/19 10:04:35;;;;;;;25.30;16.60;;;14.30;91.80;;;;;;4985053;28;20361;-63
2023/10/19 10:07:01;;;;;;;24.13;16.33;;;14.40;91.70;;;;;;4986600;28;20045;-61
2023/10/19 10:09:26;;;;;;;26.70;16.15;;;14.40;91.70;;;;;;4984351;28;20161;-60
2023/10/19 10:11:53;;;;;;;21.35;15.20;;;14.50;91.70;;;;;;4985062;28;20038;-61
2023/10/19 10:14:28;;;;;;;21.45;14.60;;;14.50;91.80;;;;;;4985784;28;20042;-62
2023/10/19 10:17:09;;;;;;;20.88;14.05;;;14.50;91.90;;;;;;4986345;28;20041;-63
2023/10/19 10:19:35;;;;;;;26.40;15.55;;;14.60;91.90;;;;;;4986489;28;20038;-63
2023/10/19 10:22:21;;;;;;;23.23;15.60;;;14.60;91.70;;;;;;4985830;28;20030;-61
2023/10/19 10:24:48;;;;;;;27.77;16.55;;;14.70;92.10;;;;;;4985814;28;20097;-61
2023/10/19 10:27:19;;;;;;;25.38;15.35;;;14.70;91.80;;;;;;4985959;28;20046;-62
2023/10/19 10:29:58;;;;;;;22.48;14.57;;;14.70;91.90;;;;;;4985428;28;20116;-64
2023/10/19 10:33:05;;;;;;;23.70;15.45;;;14.80;92.40;;;;;;4985350;28;20461;-62
2023/10/19 10:35:36;;;;;;;21.67;14.38;;;14.90;92.30;;;;;;4923654;29;20102;-62
2023/10/19 10:38:06;;;;;;;23.45;14.88;;;14.90;92.00;;;;;;4926539;29;20059;-62
2023/10/19 10:40:45;;;;;;;20.25;14.18;;;15.00;92.00;;;;;;4956231;28;20047;-63
2023/10/19 10:43:11;;;;;;;17.42;14.32;;;15.00;92.00;;;;;;4984990;28;20042;-64
2023/10/19 10:45:37;;;;;;;18.90;14.88;;;15.10;91.90;;;;;;4986176;28;20095;-63
2023/10/19 10:48:03;;;;;;;17.67;13.98;;;15.10;91.90;;;;;;4985978;28;20038;-63
2023/10/19 10:50:29;;;;;;;18.15;14.07;;;15.20;91.80;;;;;;4983836;28;20535;-64
2023/10/19 10:52:57;;;;;;;16.98;13.77;;;15.20;91.70;;;;;;4986487;28;20037;-63
2023/10/19 10:55:25;;;;;;;19.63;14.77;;;15.30;91.70;;;;;;4984736;28;20505;-62
2023/10/19 10:57:51;;;;;;;17.17;14.45;;;15.40;91.70;;;;;;4985033;28;20120;-64
2023/10/19 11:00:18;;;;;;;17.70;14.77;;;15.40;91.70;;;;;;4984256;28;20117;-64
2023/10/19 11:02:47;;;;;;;18.20;14.82;;;15.50;91.80;;;;;;4983070;28;20162;-64
2023/10/19 11:05:14;;;;;;;17.88;13.65;;;15.50;91.70;;;;;;4984538;28;20109;-63
2023/10/19 11:07:41;;;;;;;16.15;13.65;;;15.60;91.60;;;;;;4986491;28;20034;-63
2023/10/19 11:10:09;;;;;;;16.92;13.48;;;15.60;91.50;;;;;;4983382;28;20069;-63
2023/10/19 11:12:35;;;;;;;17.48;13.38;;;15.70;91.40;;;;;;4984777;28;20596;-64
2023/10/19 11:15:09;;;;;;;16.02;12.93;;;15.70;91.40;;;;;;4985218;28;20391;-64
2023/10/19 11:17:44;;;;;;;15.50;13.32;;;15.80;91.40;;;;;;4984066;28;20048;-64
2023/10/19 11:20:20;;;;;;;14.98;13.23;;;15.90;91.40;;;;;;4984060;28;20042;-63
2023/10/19 11:22:51;;;;;;;16.05;13.48;;;15.80;91.30;;;;;;4984296;28;20065;-64
2023/10/19 11:25:21;;;;;;;18.30;13.23;;;15.90;91.40;;;;;;4983687;28;20472;-64
2023/10/19 11:27:49;;;;;;;16.75;13.38;;;16.00;91.30;;;;;;4985648;28;20387;-64
2023/10/19 11:30:24;;;;;;;18.15;14.15;;;16.00;91.20;;;;;;4984305;28;20042;-64
2023/10/19 11:32:52;;;;;;;19.88;14.32;;;16.10;91.20;;;;;;4984250;28;20041;-63
2023/10/19 11:35:19;;;;;;;16.52;13.90;;;16.10;91.10;;;;;;4984503;28;20132;-63
2023/10/19 11:37:52;;;;;;;18.42;13.70;;;16.10;91.20;;;;;;4984034;28;20522;-63
2023/10/19 11:40:20;;;;;;;18.00;13.65;;;16.10;91.30;;;;;;4983772;28;20030;-63
2023/10/19 11:42:46;;;;;;;18.08;14.38;;;16.20;91.40;;;;;;4984082;28;20037;-63
2023/10/19 11:45:12;;;;;;;17.95;13.70;;;16.20;91.40;;;;;;4983469;28;20120;-63
2023/10/19 11:47:38;;;;;;;19.42;14.60;;;16.30;91.50;;;;;;4984686;28;20074;-64
2023/10/19 11:50:04;;;;;;;17.98;14.38;;;16.30;91.50;;;;;;4984851;28;20052;-64
2023/10/19 11:52:30;;;;;;;17.13;14.63;;;16.30;91.50;;;;;;4982218;28;20138;-64
2023/10/19 11:54:56;;;;;;;16.05;13.88;;;16.40;91.60;;;;;;4984167;28;20144;-64
2023/10/19 11:57:23;;;;;;;16.42;13.55;;;16.50;91.70;;;;;;4984179;28;20454;-64
2023/10/19 11:59:52;;;;;;;17.40;13.90;;;16.60;91.70;;;;;;4983831;28;20225;-63
2023/10/19 12:02:18;;;;;;;20.27;13.30;;;16.70;91.70;;;;;;4984616;28;20088;-63
2023/10/19 12:04:45;;;;;;;17.73;13.43;;;16.80;91.50;;;;;;4983239;28;20169;-64
2023/10/19 12:07:11;;;;;;;16.95;11.70;;;16.90;91.50;;;;;;4984619;28;20038;-64
2023/10/19 12:09:37;;;;;;;15.70;12.35;;;16.90;91.30;;;;;;4984008;28;20042;-63
2023/10/19 12:12:06;;;;;;;15.57;11.52;;;17.00;91.30;;;;;;4984272;28;20039;-64
2023/10/19 12:14:34;;;;;;;16.13;11.05;;;17.00;91.20;;;;;;4987935;28;20027;-64
2023/10/19 12:17:01;;;;;;;18.42;11.02;;;17.10;91.10;;;;;;4989629;28;20050;-64
2023/10/19 12:19:29;;;;;;;15.55;10.68;;;17.20;91.00;;;;;;4989205;28;20042;-64
2023/10/19 12:21:55;;;;;;;13.32;10.50;;;17.20;91.10;;;;;;4989123;28;20069;-64
2023/10/19 12:24:21;;;;;;;12.63;10.13;;;17.20;91.20;;;;;;4986203;28;20498;-64
2023/10/19 12:26:47;;;;;;;11.68;9.80;;;17.30;91.10;;;;;;4987587;28;20046;-64
2023/10/19 12:29:14;;;;;;;12.23;9.90;;;17.30;91.00;;;;;;4987439;28;20425;-64
2023/10/19 12:31:40;;;;;;;12.52;9.23;;;17.40;91.10;;;;;;4985922;28;20038;-62
2023/10/19 12:34:07;;;;;;;11.75;9.20;;;17.50;91.10;;;;;;4987922;28;20073;-64
2023/10/19 12:36:35;;;;;;;12.38;9.20;;;17.50;91.10;;;;;;4985005;28;20042;-65
2023/10/19 12:39:00;;;;;;;10.73;9.00;;;17.60;91.00;;;;;;4987337;28;20034;-62
2023/10/19 12:41:27;;;;;;;11.70;9.07;;;17.60;90.90;;;;;;4987911;28;20042;-64
2023/10/19 12:44:07;;;;;;;11.77;9.45;;;17.70;90.80;;;;;;4989004;28;20160;-64
2023/10/19 12:46:36;;;;;;;10.90;9.35;;;17.80;90.80;;;;;;4988039;28;20030;-63
2023/10/19 12:49:13;;;;;;;10.27;9.13;;;17.80;90.70;;;;;;4989067;28;20240;-64
2023/10/19 12:51:42;;;;;;;10.80;8.10;;;17.80;91.00;;;;;;4989016;28;20905;-63